Time;durP1;ratioP1;P1;durP2;ratioP2;P2;SDS_P1;SDS_P2;PMS_P1;PMS_P2;Temp;Humidity;BMP_temperature;BMP_pressure;BME280_temperature;BME280_humidity;BME280_pressure;Samples;Min_cycle;Max_cycle;Signal;HPM_P1;HPM_P2
2023/09/09 00:00:35;;;;;;;6.25;3.58;;;;;;;23.72;43.92;99788.06;5064365;28;20029;-81
2023/09/09 00:03:01;;;;;;;5.50;3.07;;;;;;;23.72;43.95;99785.38;5052073;28;20120;-79
2023/09/09 00:05:29;;;;;;;6.43;3.10;;;;;;;23.72;44.07;99788.06;5051677;28;20029;-80
2023/09/09 00:07:55;;;;;;;6.22;3.30;;;;;;;23.70;43.64;99781.09;5060233;28;20112;-80
2023/09/09 00:10:20;;;;;;;6.70;3.17;;;;;;;23.65;44.04;99781.38;5071849;28;20119;-81
2023/09/09 00:12:45;;;;;;;6.13;3.20;;;;;;;23.59;43.98;99792.56;5071575;28;20039;-81
2023/09/09 00:15:11;;;;;;;6.37;3.17;;;;;;;23.56;44.15;99790.91;5071634;28;20060;-80
2023/09/09 00:17:37;;;;;;;6.83;3.30;;;;;;;23.55;44.38;99788.34;5071111;28;20059;-79
2023/09/09 00:20:05;;;;;;;5.97;3.40;;;;;;;23.51;44.40;99790.38;5071312;28;20028;-79
2023/09/09 00:22:30;;;;;;;7.33;3.13;;;;;;;23.47;44.43;99784.31;5063218;28;20306;-81
2023/09/09 00:24:55;;;;;;;7.50;3.30;;;;;;;23.42;44.65;99783.78;5051421;28;20060;-79
2023/09/09 00:27:21;;;;;;;7.18;2.95;;;;;;;23.40;44.61;99774.94;5051032;28;20029;-79
2023/09/09 00:29:46;;;;;;;8.30;3.10;;;;;;;23.41;44.57;99779.34;5051138;28;20374;-79
2023/09/09 00:32:11;;;;;;;7.33;3.20;;;;;;;23.40;44.49;99777.63;5051063;28;20033;-82
2023/09/09 00:34:37;;;;;;;9.27;3.40;;;;;;;23.43;44.23;99781.97;5050998;28;20121;-80
2023/09/09 00:37:03;;;;;;;6.80;2.83;;;;;;;23.41;44.44;99778.50;5050951;28;20029;-80
2023/09/09 00:39:28;;;;;;;6.25;3.20;;;;;;;23.35;44.67;99777.09;5050939;28;20021;-81
2023/09/09 00:41:54;;;;;;;7.27;3.23;;;;;;;23.32;44.59;99775.44;5050951;28;20044;-79
2023/09/09 00:44:19;;;;;;;7.20;2.97;;;;;;;23.30;44.78;99766.63;5051084;28;20109;-80
2023/09/09 00:46:45;;;;;;;8.48;3.20;;;;;;;23.33;44.64;99768.25;5050909;28;20035;-80
2023/09/09 00:49:10;;;;;;;6.93;3.43;;;;;;;23.32;44.70;99774.59;5050874;28;20033;-79
2023/09/09 00:51:39;;;;;;;6.37;3.40;;;;;;;23.27;44.79;99774.03;5050722;28;20028;-81
2023/09/09 00:54:05;;;;;;;6.68;3.10;;;;;;;23.23;44.88;99776.88;5031996;28;20544;-82
2023/09/09 00:56:33;;;;;;;7.53;3.10;;;;;;;23.22;45.15;99785.06;5061858;28;20117;-80
2023/09/09 00:58:58;;;;;;;6.85;3.13;;;;;;;23.15;45.11;99779.22;5070506;28;20107;-80
2023/09/09 01:01:24;;;;;;;8.63;3.30;;;;;;;23.08;45.33;99776.03;5056611;28;20396;-80
2023/09/09 01:03:53;;;;;;;7.40;3.43;;;;;;;23.04;45.60;99765.63;5050468;28;20562;-81
2023/09/09 01:06:20;;;;;;;7.65;3.22;;;;;;;23.01;45.64;99768.47;5050442;28;20032;-81
2023/09/09 01:08:45;;;;;;;8.75;3.47;;;;;;;22.97;45.66;99772.31;5065903;28;20058;-81
2023/09/09 01:11:11;;;;;;;5.90;3.33;;;;;;;22.87;46.08;99778.28;5070566;28;20034;-79
2023/09/09 01:13:36;;;;;;;6.77;3.27;;;;;;;22.80;46.14;99774.28;5070505;28;20021;-80
2023/09/09 01:16:02;;;;;;;8.40;3.50;;;;;;;22.76;46.32;99773.59;5070216;28;20042;-80
2023/09/09 01:18:28;;;;;;;5.50;2.90;;;;;;;22.74;46.41;99763.91;5064437;28;20094;-80
2023/09/09 01:21:01;;;;;;;6.00;2.95;;;;;;;22.72;46.64;99777.44;5050092;28;20408;-80
2023/09/09 01:23:27;;;;;;;7.30;3.50;;;;;;;22.70;46.48;99773.13;5050225;28;20169;-80
2023/09/09 01:25:52;;;;;;;6.57;3.40;;;;;;;22.69;46.53;99760.66;5050445;28;20180;-79
2023/09/09 01:28:21;;;;;;;6.27;3.30;;;;;;;22.65;46.51;99771.59;5050449;28;20435;-81
2023/09/09 01:30:47;;;;;;;7.47;3.47;;;;;;;22.60;46.81;99767.47;5050075;28;20040;-80
2023/09/09 01:33:12;;;;;;;5.87;3.40;;;;;;;22.57;47.05;99759.59;5049982;28;20029;-80
2023/09/09 01:35:38;;;;;;;6.50;3.10;;;;;;;22.54;46.85;99771.38;5049853;28;20044;-80
2023/09/09 01:38:03;;;;;;;7.87;3.30;;;;;;;22.53;47.10;99769.66;5050014;28;20683;-80
2023/09/09 01:40:29;;;;;;;7.97;3.23;;;;;;;22.47;47.10;99765.56;5031790;28;20112;-80
2023/09/09 01:42:54;;;;;;;7.07;3.37;;;;;;;22.44;47.31;99762.16;5049808;28;20029;-79
2023/09/09 01:45:20;;;;;;;7.93;3.03;;;;;;;22.40;47.44;99760.63;5049937;28;20344;-81
2023/09/09 01:47:45;;;;;;;6.87;3.40;;;;;;;22.37;47.46;99757.19;5049691;28;20040;-80
2023/09/09 01:50:10;;;;;;;6.23;3.20;;;;;;;22.35;47.99;99756.41;5050385;28;20052;-81
2023/09/09 01:52:36;;;;;;;7.30;3.50;;;;;;;22.33;47.54;99755.66;5049815;28;20040;-80
2023/09/09 01:55:01;;;;;;;7.23;3.17;;;;;;;22.30;47.80;99755.81;5049748;28;20492;-80
2023/09/09 01:57:26;;;;;;;9.13;3.53;;;;;;;22.26;47.84;99758.81;5068341;28;20029;-79
2023/09/09 01:59:53;;;;;;;8.38;3.63;;;;;;;22.23;47.99;99767.88;5068214;28;20035;-80
2023/09/09 02:02:18;;;;;;;9.55;3.53;;;;;;;22.15;48.41;99754.94;5049708;28;20499;-80
2023/09/09 02:04:44;;;;;;;6.20;3.80;;;;;;;22.14;48.33;99760.41;5048639;28;20025;-80
2023/09/09 02:07:09;;;;;;;7.63;3.47;;;;;;;22.13;48.05;99762.22;5051882;28;20029;-81
2023/09/09 02:09:35;;;;;;;6.63;3.50;;;;;;;22.08;48.49;99754.47;5069588;28;20024;-80
2023/09/09 02:12:03;;;;;;;7.70;3.38;;;;;;;22.07;48.35;99762.59;5069823;28;20028;-79
2023/09/09 02:14:28;;;;;;;8.05;3.60;;;;;;;22.04;48.46;99765.47;5065673;28;20416;-79
2023/09/09 02:16:54;;;;;;;7.90;3.90;;;;;;;22.01;48.86;99760.28;5049260;28;20032;-79
2023/09/09 02:19:20;;;;;;;6.32;3.42;;;;;;;21.99;48.96;99754.16;5049248;28;20396;-81
2023/09/09 02:21:48;;;;;;;7.17;3.70;;;;;;;21.94;49.09;99765.16;5049271;28;20106;-80
2023/09/09 02:24:14;;;;;;;7.80;3.88;;;;;;;21.90;49.21;99763.63;5049554;28;20036;-80
2023/09/09 02:26:39;;;;;;;7.55;3.80;;;;;;;21.88;49.18;99757.47;5049294;28;20524;-80
2023/09/09 02:29:05;;;;;;;7.37;3.70;;;;;;;21.83;49.20;99756.91;5049319;28;20117;-80
2023/09/09 02:31:30;;;;;;;7.37;4.00;;;;;;;21.78;49.43;99759.84;5049098;28;20053;-79
2023/09/09 02:33:55;;;;;;;7.43;3.60;;;;;;;21.72;49.58;99761.06;5049020;28;20116;-80
2023/09/09 02:36:21;;;;;;;8.30;4.00;;;;;;;21.69;49.67;99758.56;5049397;28;20021;-79
2023/09/09 02:38:46;;;;;;;6.72;3.78;;;;;;;21.68;49.89;99758.63;5049052;28;20025;-80
2023/09/09 02:41:12;;;;;;;7.60;3.83;;;;;;;21.66;49.83;99766.78;5049498;28;20040;-79
2023/09/09 02:43:37;;;;;;;7.60;3.97;;;;;;;21.63;50.09;99766.94;5049210;28;20029;-80
2023/09/09 02:46:04;;;;;;;7.40;3.80;;;;;;;21.61;49.92;99766.16;5049691;28;20036;-79
2023/09/09 02:48:29;;;;;;;8.50;3.73;;;;;;;21.58;49.94;99774.34;5049097;28;20037;-80
2023/09/09 02:50:55;;;;;;;7.50;3.70;;;;;;;21.51;50.37;99766.69;5049174;28;20094;-82
2023/09/09 02:53:21;;;;;;;7.80;3.80;;;;;;;21.47;50.70;99767.81;5049065;28;20040;-80
2023/09/09 02:55:47;;;;;;;7.80;4.40;;;;;;;21.39;50.56;99770.09;5053597;28;20511;-80
2023/09/09 02:58:14;;;;;;;9.60;4.35;;;;;;;21.36;50.77;99767.59;5068988;28;20037;-81
2023/09/09 03:00:39;;;;;;;9.40;4.10;;;;;;;21.34;51.18;99772.13;5061318;28;20052;-81
2023/09/09 03:03:05;;;;;;;6.38;3.90;;;;;;;21.33;50.92;99768.59;5048849;28;20045;-80
2023/09/09 03:05:35;;;;;;;6.70;4.20;;;;;;;21.35;51.58;99773.91;5049139;28;20033;-80
2023/09/09 03:08:01;;;;;;;7.97;3.65;;;;;;;21.32;51.30;99772.25;5058464;28;20043;-81
2023/09/09 03:10:27;;;;;;;9.45;4.22;;;;;;;21.32;51.58;99768.69;5067807;28;20033;-81
2023/09/09 03:12:52;;;;;;;7.57;4.00;;;;;;;21.31;51.51;99773.19;5049133;28;20032;-80
2023/09/09 03:15:18;;;;;;;7.03;3.92;;;;;;;21.29;51.69;99771.53;5048892;28;20035;-80
2023/09/09 03:17:43;;;;;;;8.37;4.43;;;;;;;21.28;51.38;99777.84;5052305;28;20553;-81
2023/09/09 03:20:09;;;;;;;7.10;4.00;;;;;;;21.28;51.62;99775.16;5052435;28;20025;-80
2023/09/09 03:22:34;;;;;;;7.15;4.28;;;;;;;21.28;51.62;99769.81;5052491;28;20025;-80
2023/09/09 03:25:00;;;;;;;8.73;3.93;;;;;;;21.25;51.71;99765.50;5052605;28;20036;-79
2023/09/09 03:27:25;;;;;;;8.00;3.97;;;;;;;21.22;51.97;99769.22;5052244;28;20017;-80
2023/09/09 03:29:51;;;;;;;8.47;4.50;;;;;;;21.19;52.16;99769.41;5052217;28;20413;-79
2023/09/09 03:32:16;;;;;;;6.90;4.35;;;;;;;21.17;52.29;99767.75;5052276;28;20029;-80
2023/09/09 03:34:41;;;;;;;7.53;4.17;;;;;;;21.15;52.43;99773.19;5052418;28;20025;-80
2023/09/09 03:37:07;;;;;;;7.33;4.23;;;;;;;21.14;52.24;99776.84;5052392;28;20483;-79
2023/09/09 03:39:32;;;;;;;7.03;3.97;;;;;;;21.09;52.30;99770.84;5052551;28;20388;-81
2023/09/09 03:41:58;;;;;;;8.40;4.03;;;;;;;21.08;52.70;99763.75;5052467;28;20063;-80
2023/09/09 03:44:23;;;;;;;9.20;4.07;;;;;;;21.03;52.61;99768.53;5052130;28;20033;-79
2023/09/09 03:46:48;;;;;;;7.30;4.10;;;;;;;21.02;52.68;99769.47;5051968;28;20029;-79
2023/09/09 03:49:14;;;;;;;7.00;3.93;;;;;;;20.97;53.27;99761.69;5052039;28;20071;-80
2023/09/09 03:51:40;;;;;;;7.00;4.53;;;;;;;20.96;52.99;99768.00;5052357;28;20024;-81
2023/09/09 03:54:05;;;;;;;8.97;4.17;;;;;;;20.93;53.13;99762.81;5051820;28;20033;-80
2023/09/09 03:56:31;;;;;;;6.43;3.90;;;;;;;20.90;52.97;99771.00;5062777;28;20029;-79
2023/09/09 03:58:56;;;;;;;10.37;4.30;;;;;;;20.85;53.10;99765.91;5071889;28;20025;-80
2023/09/09 04:01:21;;;;;;;6.55;4.07;;;;;;;20.84;53.35;99766.84;5058591;28;20037;-79
2023/09/09 04:03:47;;;;;;;9.00;4.00;;;;;;;20.80;53.30;99767.97;5051609;28;20033;-81
2023/09/09 04:06:12;;;;;;;8.40;4.00;;;;;;;20.77;53.24;99766.31;5051865;28;20052;-79
2023/09/09 04:08:39;;;;;;;7.33;3.97;;;;;;;20.75;53.43;99762.00;5066774;28;20036;-80
2023/09/09 04:11:05;;;;;;;7.53;4.30;;;;;;;20.71;53.62;99760.44;5071842;28;20668;-80
2023/09/09 04:13:31;;;;;;;8.75;4.10;;;;;;;20.67;53.52;99756.19;5071579;28;20116;-79
2023/09/09 04:15:57;;;;;;;7.82;4.70;;;;;;;20.65;54.01;99765.19;5071360;28;20131;-79
2023/09/09 04:18:24;;;;;;;8.57;4.37;;;;;;;20.62;53.66;99760.00;5071250;28;20032;-79
2023/09/09 04:20:49;;;;;;;8.15;4.25;;;;;;;20.59;53.86;99765.47;5071313;28;20036;-79
2023/09/09 04:23:16;;;;;;;7.40;4.38;;;;;;;20.55;53.82;99760.41;5071355;28;20392;-78
2023/09/09 04:25:43;;;;;;;6.53;4.00;;;;;;;20.51;54.14;99754.34;5049107;28;20094;-79
2023/09/09 04:28:10;;;;;;;9.63;4.10;;;;;;;20.46;54.24;99756.41;5050546;28;20420;-81
2023/09/09 04:30:38;;;;;;;7.80;4.00;;;;;;;20.42;54.47;99753.03;5051098;28;20284;-78
2023/09/09 04:33:06;;;;;;;7.15;4.25;;;;;;;20.41;54.18;99755.81;5033111;28;20511;-79
2023/09/09 04:35:31;;;;;;;7.28;4.10;;;;;;;20.39;54.19;99752.34;5051175;28;20033;-79
2023/09/09 04:37:56;;;;;;;8.40;4.37;;;;;;;20.38;54.67;99748.78;5051225;28;20029;-79
2023/09/09 04:40:22;;;;;;;6.73;3.90;;;;;;;20.37;54.64;99763.09;5051093;28;20029;-78
2023/09/09 04:42:47;;;;;;;7.43;4.27;;;;;;;20.32;54.90;99763.34;5050892;28;20553;-79
2023/09/09 04:45:12;;;;;;;8.43;4.80;;;;;;;20.29;55.03;99762.66;5051114;28;20029;-79
2023/09/09 04:47:38;;;;;;;6.80;4.30;;;;;;;20.26;55.12;99760.16;5050976;28;20408;-80
2023/09/09 04:50:04;;;;;;;7.30;4.10;;;;;;;20.24;54.88;99765.56;5051130;28;20025;-79
2023/09/09 04:52:29;;;;;;;10.60;3.90;;;;;;;20.22;55.11;99767.47;5051044;28;20555;-79
2023/09/09 04:54:54;;;;;;;8.52;4.25;;;;;;;20.21;55.13;99761.22;5050689;28;20033;-79
2023/09/09 04:57:20;;;;;;;6.63;3.73;;;;;;;20.21;55.30;99771.06;5068872;28;20033;-79
2023/09/09 04:59:45;;;;;;;8.17;4.20;;;;;;;20.16;54.98;99768.63;5070154;28;20452;-80
2023/09/09 05:02:11;;;;;;;7.80;4.00;;;;;;;20.13;55.50;99767.91;5050573;28;20029;-79
2023/09/09 05:04:36;;;;;;;6.70;4.20;;;;;;;20.07;55.18;99764.63;5050978;28;20032;-79
2023/09/09 05:07:01;;;;;;;8.73;4.20;;;;;;;20.04;55.73;99771.97;5052316;28;20021;-80
2023/09/09 05:09:27;;;;;;;8.90;4.20;;;;;;;20.00;55.76;99776.59;5070591;28;20108;-79
2023/09/09 05:11:52;;;;;;;8.90;4.37;;;;;;;19.97;55.82;99781.22;5070720;28;20077;-80
2023/09/09 05:14:18;;;;;;;7.33;4.20;;;;;;;19.92;55.77;99782.31;5070264;28;20103;-79
2023/09/09 05:16:43;;;;;;;9.37;4.30;;;;;;;19.89;55.89;99782.44;5071398;28;20031;-79
2023/09/09 05:19:08;;;;;;;7.77;4.07;;;;;;;19.88;55.90;99793.19;5070544;28;20551;-80
2023/09/09 05:21:34;;;;;;;7.97;3.83;;;;;;;19.88;55.98;99785.19;5070170;28;20294;-78
2023/09/09 05:23:59;;;;;;;7.17;4.10;;;;;;;19.89;56.23;99797.59;5070527;28;20032;-79
2023/09/09 05:26:24;;;;;;;7.63;4.27;;;;;;;19.89;56.15;99789.59;5059838;28;20040;-80
2023/09/09 05:28:50;;;;;;;6.80;4.17;;;;;;;19.91;56.09;99785.09;5050399;28;20056;-81
2023/09/09 05:31:16;;;;;;;7.30;3.70;;;;;;;19.91;56.11;99791.28;5050055;28;20523;-80
2023/09/09 05:33:41;;;;;;;6.78;4.03;;;;;;;19.92;56.21;99792.16;5050487;28;20481;-80
2023/09/09 05:36:07;;;;;;;7.13;4.07;;;;;;;19.93;56.01;99796.56;5049936;28;20040;-78
2023/09/09 05:38:32;;;;;;;7.63;3.92;;;;;;;19.92;56.04;99797.50;5049917;28;20025;-80
2023/09/09 05:40:57;;;;;;;6.33;4.07;;;;;;;19.90;56.11;99804.72;5049968;28;20505;-80
2023/09/09 05:43:23;;;;;;;6.87;3.80;;;;;;;19.89;55.78;99802.94;5050314;28;20024;-79
2023/09/09 05:45:48;;;;;;;6.97;3.73;;;;;;;19.89;55.98;99802.94;5049992;28;20108;-81
2023/09/09 05:48:14;;;;;;;7.32;4.00;;;;;;;19.92;56.32;99800.19;5049891;28;20020;-79
2023/09/09 05:50:39;;;;;;;7.73;3.60;;;;;;;19.94;55.80;99800.97;5049938;28;20401;-80
2023/09/09 05:53:05;;;;;;;8.00;3.70;;;;;;;19.98;56.10;99807.88;5032063;28;20028;-79
2023/09/09 05:55:30;;;;;;;9.77;4.00;;;;;;;19.98;56.22;99807.00;5052227;28;20508;-78
2023/09/09 05:57:56;;;;;;;8.40;3.92;;;;;;;19.98;56.02;99807.88;5051610;28;20020;-78
2023/09/09 06:00:21;;;;;;;7.60;4.00;;;;;;;20.00;55.68;99815.78;5063917;28;20057;-80
2023/09/09 06:02:46;;;;;;;7.77;4.03;;;;;;;20.01;55.94;99815.72;5069447;28;20025;-80
2023/09/09 06:05:13;;;;;;;7.53;3.90;;;;;;;20.04;55.52;99815.56;5069684;28;20020;-79
2023/09/09 06:07:40;;;;;;;7.25;4.07;;;;;;;20.24;55.63;99805.66;5063235;28;20059;-79
2023/09/09 06:10:05;;;;;;;7.28;3.80;;;;;;;20.54;54.90;99804.16;5049721;28;20037;-79
2023/09/09 06:12:31;;;;;;;7.22;4.05;;;;;;;20.85;54.13;99803.38;5049578;28;20020;-79
2023/09/09 06:14:56;;;;;;;6.90;4.40;;;;;;;21.15;53.18;99801.78;5049359;28;20396;-79
2023/09/09 06:17:22;;;;;;;7.27;3.97;;;;;;;21.39;52.84;99802.22;5049296;28;20033;-80
2023/09/09 06:19:47;;;;;;;10.20;4.17;;;;;;;21.54;52.52;99795.13;5049383;28;20043;-80
2023/09/09 06:22:12;;;;;;;7.65;4.35;;;;;;;21.71;52.26;99794.16;5049492;28;20025;-80
2023/09/09 06:24:38;;;;;;;8.23;3.30;;;;;;;21.92;52.11;99793.88;5049589;28;20033;-80
2023/09/09 06:27:03;;;;;;;8.33;4.57;;;;;;;22.03;51.82;99799.44;5049185;28;20494;-79
2023/09/09 06:29:29;;;;;;;9.70;5.03;;;;;;;22.06;51.91;99801.09;5049419;28;20090;-79
2023/09/09 06:31:54;;;;;;;7.63;3.83;;;;;;;22.17;51.57;99812.03;5049195;28;20036;-80
2023/09/09 06:34:20;;;;;;;6.77;4.10;;;;;;;22.23;51.77;99819.72;5049325;28;20120;-80
2023/09/09 06:36:45;;;;;;;6.70;4.00;;;;;;;22.32;51.59;99821.00;5049322;28;20037;-80
2023/09/09 06:39:11;;;;;;;7.75;3.90;;;;;;;22.47;51.46;99821.03;5049107;28;20033;-80
2023/09/09 06:41:36;;;;;;;8.23;4.30;;;;;;;22.57;51.31;99824.88;5049107;28;20029;-81
2023/09/09 06:44:01;;;;;;;8.63;4.53;;;;;;;22.69;51.17;99819.72;5049324;28;20064;-80
2023/09/09 06:46:27;;;;;;;8.90;4.23;;;;;;;22.77;51.24;99823.66;5049275;28;20021;-80
2023/09/09 06:48:52;;;;;;;7.30;3.93;;;;;;;22.84;51.06;99818.75;5031227;28;20025;-75
2023/09/09 06:51:17;;;;;;;8.03;3.80;;;;;;;22.88;51.17;99814.91;5054139;28;20035;-76
2023/09/09 06:53:43;;;;;;;7.73;4.50;;;;;;;22.88;51.47;99814.91;5064877;28;20028;-77
2023/09/09 06:56:08;;;;;;;8.43;4.63;;;;;;;23.00;51.32;99817.78;5061128;28;20029;-77
2023/09/09 06:58:33;;;;;;;7.83;4.60;;;;;;;23.13;51.33;99818.72;5062854;28;20218;-78
2023/09/09 07:00:59;;;;;;;9.83;4.63;;;;;;;23.17;51.34;99814.88;5060874;28;20024;-77
2023/09/09 07:03:24;;;;;;;7.60;4.97;;;;;;;23.25;51.13;99826.94;5060956;28;20028;-79
2023/09/09 07:05:50;;;;;;;7.13;3.70;;;;;;;23.33;51.16;99814.78;5052996;28;20365;-76
2023/09/09 07:08:16;;;;;;;8.38;4.20;;;;;;;23.44;50.94;99822.16;5064510;28;20028;-78
2023/09/09 07:10:56;;;;;;;8.47;3.90;;;;;;;23.54;51.02;99821.56;5073526;28;20025;-77
2023/09/09 07:13:22;;;;;;;6.95;4.00;;;;;;;23.65;50.93;99819.03;5066142;28;20075;-75
2023/09/09 07:15:50;;;;;;;6.22;3.83;;;;;;;23.75;50.30;99813.91;5061725;28;20059;-76
2023/09/09 07:18:16;;;;;;;7.20;3.50;;;;;;;23.82;50.01;99817.03;5059177;28;20388;-77
2023/09/09 07:20:42;;;;;;;9.53;4.07;;;;;;;23.93;49.74;99815.34;5053731;28;20044;-75
2023/09/09 07:23:07;;;;;;;7.50;3.60;;;;;;;24.05;48.95;99811.00;5052520;28;20036;-77
2023/09/09 07:25:33;;;;;;;7.47;3.40;;;;;;;24.22;48.74;99811.66;5054609;28;20433;-76
2023/09/09 07:27:59;;;;;;;7.32;3.35;;;;;;;24.35;48.35;99809.84;5055535;28;20021;-77
2023/09/09 07:30:24;;;;;;;8.43;3.30;;;;;;;24.50;47.94;99816.00;5060927;28;20525;-76
2023/09/09 07:32:50;;;;;;;7.70;3.60;;;;;;;24.59;47.34;99814.50;5052197;28;20027;-77
2023/09/09 07:35:15;;;;;;;8.07;3.90;;;;;;;24.66;47.25;99806.84;5052152;28;20044;-77
2023/09/09 07:37:40;;;;;;;8.57;3.70;;;;;;;24.80;46.78;99812.13;5052708;28;20028;-80
2023/09/09 07:40:06;;;;;;;7.30;3.50;;;;;;;24.95;46.72;99814.72;5050654;28;20029;-77
2023/09/09 07:42:32;;;;;;;9.25;3.97;;;;;;;25.05;46.00;99823.84;5056694;28;20715;-76
2023/09/09 07:44:58;;;;;;;7.07;3.07;;;;;;;25.10;45.66;99818.13;5059928;28;20116;-75
2023/09/09 07:47:23;;;;;;;7.90;3.40;;;;;;;25.20;45.12;99813.81;5045263;28;20030;-78
2023/09/09 07:49:49;;;;;;;7.00;3.30;;;;;;;25.28;44.74;99825.84;5061022;28;20025;-78
2023/09/09 07:52:15;;;;;;;6.85;3.17;;;;;;;25.36;44.26;99823.44;5061266;28;20028;-76
2023/09/09 07:54:40;;;;;;;9.27;3.17;;;;;;;25.40;44.37;99835.72;5068388;28;20068;-77
2023/09/09 07:57:06;;;;;;;8.53;3.53;;;;;;;25.50;43.72;99825.16;5068822;28;20067;-77
2023/09/09 07:59:31;;;;;;;6.18;3.70;;;;;;;25.62;44.32;99828.78;5071933;28;20403;-77
2023/09/09 08:01:57;;;;;;;8.13;3.47;;;;;;;25.79;43.71;99830.22;5052439;28;20415;-77
2023/09/09 08:04:23;;;;;;;6.27;3.20;;;;;;;25.96;43.62;99831.66;5050469;28;20021;-77
2023/09/09 08:06:52;;;;;;;9.40;3.40;;;;;;;26.01;42.80;99837.56;5050289;28;20047;-78
2023/09/09 08:09:18;;;;;;;7.45;3.50;;;;;;;26.11;42.71;99835.03;5050081;28;20060;-77
2023/09/09 08:11:43;;;;;;;7.25;3.42;;;;;;;26.29;41.54;99821.97;5050129;28;20052;-78
2023/09/09 08:14:09;;;;;;;8.33;3.20;;;;;;;26.45;41.21;99831.59;5050052;28;20660;-78
2023/09/09 08:16:34;;;;;;;9.17;3.33;;;;;;;26.65;41.55;99822.78;5052666;28;20286;-77
2023/09/09 08:19:00;;;;;;;7.03;3.73;;;;;;;26.91;40.76;99827.13;5061110;28;20120;-80
2023/09/09 08:21:25;;;;;;;7.63;3.50;;;;;;;27.14;40.74;99827.97;5051536;28;20087;-80
2023/09/09 08:23:52;;;;;;;6.37;3.47;;;;;;;27.32;39.80;99830.16;5051272;28;20481;-79
2023/09/09 08:26:18;;;;;;;7.03;3.30;;;;;;;27.45;39.95;99824.59;5051193;28;20029;-79
2023/09/09 08:28:43;;;;;;;7.13;3.40;;;;;;;27.58;39.39;99825.34;5051398;28;20021;-77
2023/09/09 08:31:08;;;;;;;6.13;3.40;;;;;;;27.59;39.27;99828.88;5050837;28;20481;-77
2023/09/09 08:33:34;;;;;;;7.87;3.43;;;;;;;27.50;38.70;99828.63;5051276;28;20037;-77
2023/09/09 08:36:00;;;;;;;6.85;3.30;;;;;;;27.49;38.99;99837.75;5051242;28;20060;-77
2023/09/09 08:38:25;;;;;;;7.00;3.20;;;;;;;27.43;39.06;99830.13;5063411;28;20025;-76
2023/09/09 08:41:16;;;;;;;7.07;3.38;;;;;;;27.33;39.51;99837.28;5052651;28;20451;-77
2023/09/09 08:44:03;;;;;;;8.20;3.38;;;;;;;27.42;39.09;99835.66;5050622;28;20082;-75
2023/09/09 08:46:29;;;;;;;8.07;3.20;;;;;;;27.50;39.32;99822.38;5050904;28;20020;-76
2023/09/09 08:48:55;;;;;;;6.15;3.20;;;;;;;27.65;39.39;99821.13;5050901;28;20410;-76
2023/09/09 08:51:47;;;;;;;9.73;3.33;;;;;;;27.65;38.96;99833.81;5032830;28;20081;-79
2023/09/09 08:54:14;;;;;;;7.57;3.70;;;;;;;27.75;38.19;99837.47;5050722;28;20037;-76
2023/09/09 08:56:41;;;;;;;6.07;3.27;;;;;;;27.68;38.36;99830.84;5045051;28;20055;-76
2023/09/09 08:59:07;;;;;;;6.57;3.20;;;;;;;27.66;38.24;99827.41;5052958;28;20455;-76
2023/09/09 09:01:33;;;;;;;6.35;3.20;;;;;;;27.82;38.21;99826.97;5055891;28;20025;-76
2023/09/09 09:04:00;;;;;;;9.23;3.27;;;;;;;27.93;37.83;99834.19;5050891;28;20108;-77
2023/09/09 09:06:26;;;;;;;7.72;3.55;;;;;;;28.11;38.05;99830.94;5050448;28;20399;-76
2023/09/09 09:08:52;;;;;;;8.25;3.40;;;;;;;28.20;37.51;99822.03;5050742;28;20021;-76
2023/09/09 09:11:20;;;;;;;6.30;3.37;;;;;;;28.25;37.02;99827.91;5050397;28;20265;-76
2023/09/09 09:13:47;;;;;;;14.77;3.72;;;;;;;28.33;36.65;99824.56;5049900;28;20027;-77
2023/09/09 09:16:13;;;;;;;7.70;3.70;;;;;;;28.36;36.74;99821.56;5050452;28;20033;-77
2023/09/09 09:18:38;;;;;;;5.30;3.28;;;;;;;28.48;36.63;99825.06;5050343;28;20021;-77
2023/09/09 09:21:09;;;;;;;8.07;3.77;;;;;;;28.53;36.21;99836.34;5050336;28;20033;-76
2023/09/09 09:23:42;;;;;;;6.13;3.20;;;;;;;28.63;35.86;99829.16;5049980;28;20021;-78
2023/09/09 09:26:22;;;;;;;6.50;3.23;;;;;;;28.66;35.79;99830.72;5049921;28;20032;-77
2023/09/09 09:28:47;;;;;;;5.28;2.97;;;;;;;28.83;35.41;99826.59;5048804;28;20036;-78
2023/09/09 09:31:23;;;;;;;7.07;3.40;;;;;;;28.86;34.93;99831.72;5049394;28;20049;-76
2023/09/09 09:33:52;;;;;;;6.78;3.30;;;;;;;28.94;35.18;99818.34;5049865;28;20107;-77
2023/09/09 09:36:21;;;;;;;7.85;3.05;;;;;;;29.05;34.76;99825.53;5049645;28;20025;-77
2023/09/09 09:38:49;;;;;;;6.72;2.88;;;;;;;29.27;34.78;99822.72;5050410;28;20027;-76
2023/09/09 09:41:18;;;;;;;6.18;3.10;;;;;;;29.42;34.83;99817.78;5053440;28;20020;-77
2023/09/09 09:43:48;;;;;;;7.03;3.07;;;;;;;29.48;34.55;99809.97;5069646;28;20032;-78
2023/09/09 09:46:17;;;;;;;6.32;2.88;;;;;;;29.63;34.63;99818.53;5051768;28;20064;-76
2023/09/09 09:48:43;;;;;;;6.95;3.50;;;;;;;29.71;33.73;99815.13;5049880;28;20060;-77
2023/09/09 09:51:09;;;;;;;6.43;3.40;;;;;;;29.82;33.61;99813.28;5049743;28;20017;-77
2023/09/09 09:53:49;;;;;;;6.63;3.37;;;;;;;29.77;33.44;99822.69;5049821;28;20531;-77
2023/09/09 09:56:15;;;;;;;7.47;3.25;;;;;;;29.85;33.83;99815.72;5058473;28;20035;-77
2023/09/09 09:58:44;;;;;;;7.53;3.35;;;;;;;29.93;33.27;99810.41;5069880;28;20028;-77
2023/09/09 10:01:10;;;;;;;6.30;3.15;;;;;;;30.06;33.52;99804.72;5069717;28;20095;-77
2023/09/09 10:04:04;;;;;;;6.93;3.20;;;;;;;30.04;33.66;99802.19;5069731;28;20028;-77
2023/09/09 10:06:33;;;;;;;6.80;3.33;;;;;;;30.28;33.17;99800.84;5069858;28;20020;-77
2023/09/09 10:09:23;;;;;;;7.03;3.35;;;;;;;30.39;33.15;99801.69;5052104;28;20032;-77
2023/09/09 10:12:06;;;;;;;6.85;3.22;;;;;;;30.44;32.23;99793.94;5031792;28;20033;-77
2023/09/09 10:14:35;;;;;;;8.40;3.00;;;;;;;30.56;32.30;99802.78;5049598;28;20487;-76
2023/09/09 10:17:05;;;;;;;8.00;3.03;;;;;;;30.59;31.61;99792.47;5049407;28;20029;-77
2023/09/09 10:19:33;;;;;;;4.93;3.10;;;;;;;30.64;31.53;99802.94;5049184;28;20025;-77
2023/09/09 10:21:59;;;;;;;7.85;3.50;;;;;;;30.73;31.91;99801.16;5049168;28;20044;-78
2023/09/09 10:24:26;;;;;;;6.43;3.40;;;;;;;30.79;31.99;99795.16;5049254;28;20494;-77
2023/09/09 10:26:52;;;;;;;5.13;3.10;;;;;;;30.90;31.53;99800.38;5051822;28;20112;-77
2023/09/09 10:29:18;;;;;;;6.83;3.10;;;;;;;31.01;31.45;99787.63;5054192;28;20179;-76
2023/09/09 10:31:44;;;;;;;6.25;3.42;;;;;;;31.19;31.58;99788.53;5053098;28;20049;-76
2023/09/09 10:34:11;;;;;;;6.23;3.30;;;;;;;31.41;30.88;99786.38;5053289;28;20029;-79
2023/09/09 10:36:37;;;;;;;6.03;3.07;;;;;;;31.46;31.24;99794.94;5052542;28;20271;-79
2023/09/09 10:39:03;;;;;;;9.40;3.67;;;;;;;31.59;31.55;99782.81;5052914;28;20032;-78
2023/09/09 10:41:33;;;;;;;6.57;3.40;;;;;;;31.75;31.47;99796.59;5060519;28;20684;-77
2023/09/09 10:43:58;;;;;;;7.38;3.60;;;;;;;31.94;31.23;99794.72;5073417;28;20029;-78
2023/09/09 10:46:34;;;;;;;5.80;3.20;;;;;;;32.01;31.04;99795.84;5072085;28;20073;-78
2023/09/09 10:49:04;;;;;;;5.70;3.40;;;;;;;32.15;30.68;99782.63;5058338;28;20156;-75
2023/09/09 10:51:42;;;;;;;6.78;3.45;;;;;;;32.27;30.54;99781.38;5053162;28;20175;-75
2023/09/09 10:54:11;;;;;;;5.78;3.70;;;;;;;32.42;30.32;99778.09;5053048;28;20021;-75
2023/09/09 10:56:48;;;;;;;5.65;3.53;;;;;;;32.29;30.30;99781.22;5064726;28;20603;-75
2023/09/09 10:59:21;;;;;;;5.50;3.50;;;;;;;32.47;30.33;99775.75;5063915;28;20031;-76
2023/09/09 11:02:15;;;;;;;7.55;3.47;;;;;;;32.43;30.61;99777.06;5072804;28;20480;-76
2023/09/09 11:04:41;;;;;;;7.20;4.00;;;;;;;32.60;29.02;99776.16;5051339;28;20048;-77
2023/09/09 11:07:07;;;;;;;5.88;3.47;;;;;;;32.76;28.24;99767.19;5051358;28;20025;-76
2023/09/09 11:09:34;;;;;;;7.78;3.53;;;;;;;32.76;28.71;99766.34;5062009;28;20087;-76
2023/09/09 11:11:59;;;;;;;6.53;3.50;;;;;;;32.77;28.55;99762.63;5055888;28;20032;-78
2023/09/09 11:14:30;;;;;;;7.55;3.90;;;;;;;32.81;29.24;99763.16;5062524;28;20032;-77
2023/09/09 11:16:56;;;;;;;7.80;3.80;;;;;;;32.93;28.73;99751.81;5051981;28;20384;-77
2023/09/09 11:19:23;;;;;;;6.50;3.30;;;;;;;33.05;27.90;99746.03;5061974;28;20035;-78
2023/09/09 11:21:52;;;;;;;7.05;3.88;;;;;;;33.14;27.75;99745.03;5070278;28;20025;-76
2023/09/09 11:24:19;;;;;;;6.13;3.70;;;;;;;33.15;27.57;99745.91;5065938;28;20033;-78
2023/09/09 11:26:46;;;;;;;6.73;3.33;;;;;;;33.13;27.31;99754.22;5047954;28;20073;-77
2023/09/09 11:29:12;;;;;;;5.93;3.38;;;;;;;33.19;27.56;99747.28;5050731;28;20562;-77
2023/09/09 11:31:38;;;;;;;6.18;3.70;;;;;;;33.17;27.74;99733.81;5049183;28;20037;-78